Time;durP1;ratioP1;P1;durP2;ratioP2;P2;SDS_P1;SDS_P2;PMS_P1;PMS_P2;Temp;Humidity;BMP_temperature;BMP_pressure;BME280_temperature;BME280_humidity;BME280_pressure;Samples;Min_cycle;Max_cycle;Signal;HPM_P1;HPM_P2
2023/12/12 00:01:00;;;;;;;13.32;8.45;;;;;;;5.80;69.90;100530.63;5090246;28;20055;-86
2023/12/12 00:03:55;;;;;;;16.30;8.43;;;;;;;5.95;69.80;100535.06;5088079;28;20047;-86
2023/12/12 00:06:44;;;;;;;18.08;9.00;;;;;;;6.01;69.07;100529.31;5090244;28;20051;-86
2023/12/12 00:09:31;;;;;;;12.38;8.40;;;;;;;5.99;69.42;100512.59;5087251;28;20039;-86
2023/12/12 00:12:24;;;;;;;11.40;7.28;;;;;;;5.63;69.60;100518.69;5090160;28;20044;-86
2023/12/12 00:15:11;;;;;;;12.38;7.97;;;;;;;5.62;71.87;100525.16;5091608;28;20130;-85
2023/12/12 00:18:06;;;;;;;15.23;8.32;;;;;;;5.75;70.62;100521.78;5086540;28;20047;-86
2023/12/12 00:20:59;;;;;;;9.73;5.88;;;;;;;5.29;70.38;100535.75;5084399;28;20524;-86
2023/12/12 00:23:49;;;;;;;10.77;6.82;;;;;;;5.75;70.07;100551.44;5085250;28;20051;-86
2023/12/12 00:26:43;;;;;;;15.25;7.32;;;;;;;5.94;68.44;100541.56;5086693;28;20047;-86
2023/12/12 00:29:38;;;;;;;10.20;5.83;;;;;;;5.86;67.92;100553.75;5089080;28;20059;-86
2023/12/12 00:32:32;;;;;;;12.82;8.60;;;;;;;5.47;69.87;100535.03;5087503;28;20289;-86
2023/12/12 00:35:27;;;;;;;9.90;6.23;;;;;;;5.44;69.46;100526.69;5091099;28;20055;-86
2023/12/12 00:38:19;;;;;;;13.65;8.57;;;;;;;5.23;70.05;100533.41;5088434;28;20052;-85
2023/12/12 00:41:11;;;;;;;17.05;11.95;;;;;;;5.19;70.06;100506.19;5091481;28;20048;-85
2023/12/12 00:43:58;;;;;;;17.75;11.80;;;;;;;5.30;69.84;100506.91;5085664;28;20044;-85
2023/12/12 00:46:54;;;;;;;23.77;13.88;;;;;;;5.13;69.65;100504.63;5087833;28;20051;-85
2023/12/12 00:49:46;;;;;;;19.88;11.18;;;;;;;5.07;70.81;100501.22;5085134;28;20417;-85
2023/12/12 00:52:38;;;;;;;21.35;13.75;;;;;;;4.96;70.86;100501.56;5088874;28;20048;-86
2023/12/12 00:55:32;;;;;;;19.95;12.77;;;;;;;4.95;70.98;100508.84;5087146;28;20521;-85
2023/12/12 00:58:24;;;;;;;14.57;10.48;;;;;;;5.16;71.84;100526.44;5090088;28;20052;-85
2023/12/12 01:01:22;;;;;;;31.30;13.13;;;;;;;5.30;72.72;100526.56;5081377;28;20048;-85
2023/12/12 01:04:17;;;;;;;22.85;14.02;;;;;;;5.07;72.15;100527.34;5063953;28;20048;-85
2023/12/12 01:07:09;;;;;;;18.08;10.40;;;;;;;4.97;73.28;100495.09;5070703;28;20048;-85
2023/12/12 01:10:03;;;;;;;23.83;13.88;;;;;;;4.71;73.07;100487.22;5068515;28;20059;-84
2023/12/12 01:13:01;;;;;;;18.83;10.80;;;;;;;4.68;73.38;100477.00;5068959;28;20048;-85
2023/12/12 01:15:53;;;;;;;39.88;15.18;;;;;;;4.48;73.90;100493.31;5087964;28;20044;-85
2023/12/12 01:18:45;;;;;;;22.77;14.52;;;;;;;4.61;73.43;100519.63;5086516;28;20706;-85
2023/12/12 01:21:40;;;;;;;25.33;15.63;;;;;;;4.74;73.35;100526.25;5083981;28;20061;-85
2023/12/12 01:24:32;;;;;;;17.07;11.90;;;;;;;4.84;72.47;100525.38;5090361;28;20043;-85
2023/12/12 01:27:24;;;;;;;29.75;13.88;;;;;;;4.95;71.61;100519.63;5084461;28;20055;-85
2023/12/12 01:30:19;;;;;;;20.90;14.45;;;;;;;4.87;72.05;100512.16;5089239;28;20044;-85
2023/12/12 01:33:13;;;;;;;17.93;11.00;;;;;;;4.90;72.14;100516.97;5084671;28;20425;-85
2023/12/12 01:36:08;;;;;;;23.77;14.50;;;;;;;4.94;71.27;100522.59;5081956;28;20958;-85
2023/12/12 01:39:02;;;;;;;19.77;13.63;;;;;;;5.01;71.36;100520.38;5084983;28;20052;-86
2023/12/12 01:41:56;;;;;;;;;;;;;;;4.96;71.46;100515.03;5085374;28;20076;-86
2023/12/12 01:44:55;;;;;;;20.35;12.68;;;;;;;4.78;70.78;100499.56;5088909;28;19916;-85
2023/12/12 01:47:48;;;;;;;20.40;13.23;;;;;;;4.51;72.54;100484.69;5085512;28;20056;-84
2023/12/12 01:50:41;;;;;;;18.80;13.50;;;;;;;4.42;72.26;100489.03;5083541;28;20051;-85
2023/12/12 01:53:39;;;;;;;23.23;14.60;;;;;;;4.40;73.31;100490.44;5085689;28;20047;-85
2023/12/12 01:56:29;;;;;;;;;;;;;;;4.57;72.28;100507.00;5090965;28;20527;-86
2023/12/12 01:59:24;;;;;;;19.05;13.45;;;;;;;4.77;71.41;100504.16;5090128;28;19912;-86
2023/12/12 02:02:16;;;;;;;;;;;;;;;4.77;70.58;100514.94;5071335;28;20409;-85
2023/12/12 02:05:11;;;;;;;20.15;12.90;;;;;;;4.85;70.26;100503.53;5083934;28;19916;-85
2023/12/12 02:08:04;;;;;;;14.88;10.73;;;;;;;4.91;69.41;100490.84;5090847;28;20492;-86
2023/12/12 02:10:59;;;;;;;17.85;13.05;;;;;;;4.97;69.49;100508.56;5085172;28;20036;-85
2023/12/12 02:13:54;;;;;;;19.42;14.02;;;;;;;5.01;69.14;100512.31;5085323;28;20047;-86
2023/12/12 02:16:46;;;;;;;16.95;12.82;;;;;;;4.57;69.56;100513.16;5086530;28;20421;-86
2023/12/12 02:19:36;;;;;;;16.50;12.27;;;;;;;4.67;69.59;100501.53;5089773;28;20055;-86
2023/12/12 02:22:31;;;;;;;22.42;13.77;;;;;;;4.79;69.20;100499.28;5088231;28;20044;-86
2023/12/12 02:25:25;;;;;;;12.10;8.93;;;;;;;4.78;69.31;100500.34;5085482;28;20047;-86
2023/12/12 02:28:15;;;;;;;21.13;14.13;;;;;;;4.82;69.13;100476.38;5088258;28;20043;-86
2023/12/12 02:31:10;;;;;;;19.45;14.43;;;;;;;4.83;69.22;100480.66;5091717;28;20051;-86
2023/12/12 02:34:05;;;;;;;14.55;11.25;;;;;;;4.51;70.33;100486.59;5087861;28;20044;-85
2023/12/12 02:36:57;;;;;;;15.10;10.10;;;;;;;4.52;69.70;100504.34;5094026;28;20059;-84
2023/12/12 02:39:47;;;;;;;18.67;13.25;;;;;;;4.47;70.00;100517.84;5088716;28;20520;-85
2023/12/12 02:42:48;;;;;;;18.77;12.80;;;;;;;4.60;69.75;100527.97;5085725;28;20059;-85
2023/12/12 02:45:42;;;;;;;19.83;13.73;;;;;;;4.67;70.08;100541.94;5089733;28;20048;-85
2023/12/12 02:48:37;;;;;;;15.27;10.07;;;;;;;4.55;69.59;100539.59;5094584;28;20051;-86
2023/12/12 02:51:27;;;;;;;20.83;13.77;;;;;;;4.58;69.74;100533.63;5093194;28;20278;-84
2023/12/12 02:54:21;;;;;;;26.17;14.15;;;;;;;4.51;70.40;100524.28;5085721;28;20047;-84
2023/12/12 02:57:13;;;;;;;21.20;12.77;;;;;;;4.47;70.17;100524.00;5085388;28;20048;-85
2023/12/12 03:00:09;;;;;;;19.90;12.45;;;;;;;4.46;70.19;100505.47;5088596;28;20044;-85
2023/12/12 03:03:01;;;;;;;22.25;14.57;;;;;;;4.44;70.54;100491.47;5085491;28;20406;-86
2023/12/12 03:05:54;;;;;;;18.27;12.65;;;;;;;4.53;69.82;100479.00;5090788;28;20051;-85
2023/12/12 03:08:48;;;;;;;17.65;13.00;;;;;;;4.56;69.86;100473.09;5091380;28;20044;-86
2023/12/12 03:11:43;;;;;;;13.83;10.00;;;;;;;4.48;69.34;100474.47;5092776;28;20047;-85
2023/12/12 03:14:37;;;;;;;15.52;11.43;;;;;;;4.55;69.21;100484.94;5092667;28;20060;-86
2023/12/12 03:17:29;;;;;;;12.05;7.85;;;;;;;4.51;68.44;100470.44;5092702;28;20044;-85
2023/12/12 03:20:21;;;;;;;16.52;11.05;;;;;;;4.44;68.56;100464.56;5090762;28;20043;-85
2023/12/12 03:23:16;;;;;;;15.13;11.10;;;;;;;4.32;68.20;100472.97;5088718;28;20528;-85
2023/12/12 03:26:11;;;;;;;13.47;10.23;;;;;;;4.08;67.93;100483.63;5091990;28;20051;-85
2023/12/12 03:29:05;;;;;;;9.52;8.38;;;;;;;4.12;68.44;100481.97;5089896;28;20051;-85
2023/12/12 03:31:57;;;;;;;13.07;10.80;;;;;;;3.81;68.78;100502.84;5087383;28;20512;-85
2023/12/12 03:34:52;;;;;;;10.00;7.93;;;;;;;3.93;68.79;100509.78;5085229;28;20063;-85
2023/12/12 03:37:45;;;;;;;10.07;7.90;;;;;;;4.17;69.01;100491.91;5088952;28;20532;-85
2023/12/12 03:40:40;;;;;;;15.48;10.27;;;;;;;4.04;68.81;100477.19;5086132;28;20051;-85
2023/12/12 03:43:32;;;;;;;13.27;10.02;;;;;;;4.02;69.84;100476.66;5088080;28;20055;-85
2023/12/12 03:46:27;;;;;;;14.27;10.75;;;;;;;3.46;69.73;100494.91;5090751;28;20047;-86
2023/12/12 03:49:21;;;;;;;10.65;8.00;;;;;;;3.64;71.50;100478.19;5090503;28;20044;-85
2023/12/12 03:52:16;;;;;;;16.10;9.77;;;;;;;3.87;69.63;100460.59;5088470;28;20512;-85
2023/12/12 03:55:15;;;;;;;9.98;7.38;;;;;;;3.61;72.13;100467.97;5084721;28;20051;-85
2023/12/12 03:58:10;;;;;;;13.57;10.63;;;;;;;3.47;71.01;100493.81;5090939;28;20468;-85
2023/12/12 04:01:02;;;;;;;9.70;8.10;;;;;;;3.56;71.58;100486.81;5087153;28;20048;-86
2023/12/12 04:03:55;;;;;;;14.25;9.95;;;;;;;3.93;70.04;100486.38;5085931;28;20636;-86
2023/12/12 04:06:52;;;;;;;13.90;10.60;;;;;;;3.37;70.07;100491.97;5091113;28;20043;-84
2023/12/12 04:09:44;;;;;;;12.43;9.48;;;;;;;3.40;73.16;100509.47;5089345;28;20052;-84
2023/12/12 04:12:39;;;;;;;12.20;9.70;;;;;;;3.60;69.78;100508.59;5090019;28;20418;-86
2023/12/12 04:15:33;;;;;;;13.00;9.48;;;;;;;3.83;70.18;100516.03;5088295;28;20051;-85
2023/12/12 04:18:28;;;;;;;9.50;6.83;;;;;;;3.82;70.74;100520.59;5091330;28;20044;-85
2023/12/12 04:21:20;;;;;;;14.57;7.47;;;;;;;3.92;69.05;100522.44;5088229;28;20044;-86
2023/12/12 04:24:12;;;;;;;13.95;9.85;;;;;;;3.90;68.96;100524.59;5081650;28;20043;-85
2023/12/12 04:27:05;;;;;;;13.93;9.48;;;;;;;4.02;68.54;100533.16;5088390;28;20059;-85
2023/12/12 04:29:59;;;;;;;12.75;10.30;;;;;;;4.21;67.98;100531.47;5085549;28;20048;-85
2023/12/12 04:32:54;;;;;;;9.75;7.45;;;;;;;3.79;68.70;100518.47;5086890;28;20054;-85
2023/12/12 04:35:49;;;;;;;9.57;7.13;;;;;;;4.00;69.73;100524.56;5087392;28;20047;-85
2023/12/12 04:38:38;;;;;;;12.30;9.18;;;;;;;4.03;69.14;100526.69;5089092;28;20123;-86
2023/12/12 04:41:30;;;;;;;13.00;9.82;;;;;;;4.11;68.75;100531.50;5082652;28;20051;-86
2023/12/12 04:44:25;;;;;;;12.38;9.30;;;;;;;4.24;68.09;100540.84;5082917;28;20059;-85
2023/12/12 04:47:19;;;;;;;14.40;8.82;;;;;;;4.23;67.98;100545.41;5088350;28;20520;-86
2023/12/12 04:50:17;;;;;;;11.80;9.80;;;;;;;3.88;68.42;100532.13;5088402;28;20530;-85
2023/12/12 04:53:09;;;;;;;10.53;6.50;;;;;;;3.75;68.74;100527.34;5084599;28;20039;-86
2023/12/12 04:56:04;;;;;;;15.18;10.50;;;;;;;3.69;69.09;100525.75;5088794;28;20051;-86
2023/12/12 04:58:59;;;;;;;8.57;6.57;;;;;;;3.73;69.31;100532.19;5087309;28;20044;-85
2023/12/12 05:01:53;;;;;;;12.55;9.15;;;;;;;3.95;68.80;100523.78;5079802;28;20047;-86
2023/12/12 05:04:48;;;;;;;13.35;7.05;;;;;;;4.08;68.15;100531.25;5088209;28;20044;-85
2023/12/12 05:07:42;;;;;;;11.02;7.07;;;;;;;4.15;69.04;100540.63;5085567;28;20043;-86
2023/12/12 05:10:35;;;;;;;8.07;6.55;;;;;;;4.28;68.19;100533.81;5079906;28;20543;-85
2023/12/12 05:13:30;;;;;;;12.18;8.68;;;;;;;4.29;68.13;100538.13;5073848;28;20413;-87
2023/12/12 05:16:25;;;;;;;9.45;6.65;;;;;;;4.15;67.48;100537.94;5089130;28;20043;-87
2023/12/12 05:19:19;;;;;;;8.00;5.97;;;;;;;4.20;66.95;100546.00;5087472;28;20142;-86
2023/12/12 05:22:11;;;;;;;11.25;8.68;;;;;;;4.01;68.53;100554.97;5078768;28;20039;-86
2023/12/12 05:25:06;;;;;;;14.15;9.57;;;;;;;4.13;68.21;100550.84;5088728;28;20051;-86
2023/12/12 05:28:01;;;;;;;7.93;5.80;;;;;;;4.07;67.69;100554.66;5085245;28;20055;-87
2023/12/12 05:30:53;;;;;;;10.20;5.60;;;;;;;3.72;69.27;100554.78;5087139;28;20047;-87
2023/12/12 05:33:47;;;;;;;19.27;7.82;;;;;;;3.85;68.67;100538.88;5082660;28;20040;-86
2023/12/12 05:36:39;;;;;;;13.05;7.65;;;;;;;3.88;67.51;100551.78;5086729;28;20445;-83
2023/12/12 05:39:34;;;;;;;10.75;7.82;;;;;;;3.54;67.92;100574.19;5087443;28;20405;-85
2023/12/12 05:42:26;;;;;;;16.55;9.43;;;;;;;3.24;70.38;100570.47;5085810;28;20056;-86
2023/12/12 05:45:18;;;;;;;15.05;9.90;;;;;;;3.50;69.67;100559.69;5086796;28;20047;-86
2023/12/12 05:48:13;;;;;;;19.33;9.80;;;;;;;3.54;69.29;100561.56;5086084;28;20051;-87
2023/12/12 05:51:07;;;;;;;16.10;9.93;;;;;;;3.43;70.62;100562.66;5079568;28;20043;-83
2023/12/12 05:54:02;;;;;;;12.07;8.10;;;;;;;3.29;71.36;100572.34;5078690;28;20052;-84
2023/12/12 05:56:54;;;;;;;11.73;8.50;;;;;;;3.48;70.71;100583.34;5082360;28;20047;-84
2023/12/12 05:59:49;;;;;;;13.43;10.13;;;;;;;3.42;70.12;100577.97;5084820;28;20620;-82
2023/12/12 06:02:41;;;;;;;11.32;9.80;;;;;;;3.45;69.70;100571.25;5077997;28;20405;-83
2023/12/12 06:05:36;;;;;;;14.02;10.52;;;;;;;3.58;69.64;100564.50;5082258;28;20056;-84
2023/12/12 06:08:30;;;;;;;11.15;8.27;;;;;;;3.65;69.19;100565.03;5083434;28;20044;-84
2023/12/12 06:11:24;;;;;;;13.05;10.27;;;;;;;3.44;69.63;100569.66;5083437;28;20058;-82
2023/12/12 06:14:16;;;;;;;13.50;9.70;;;;;;;3.29;70.22;100562.41;5080320;28;20043;-83
2023/12/12 06:17:11;;;;;;;16.13;11.40;;;;;;;3.03;72.71;100576.94;5080250;28;20056;-81
2023/12/12 06:20:06;;;;;;;16.97;10.20;;;;;;;3.27;73.57;100591.41;5084563;28;20043;-82
2023/12/12 06:22:54;;;;;;;;;;;;;;;3.18;72.52;100602.97;5080514;28;20536;-82
2023/12/12 06:25:46;;;;;;;20.73;12.13;;;;;;;2.99;72.48;100606.22;5085161;28;19916;-82
2023/12/12 06:28:41;;;;;;;26.02;11.13;;;;;;;2.99;74.15;100618.81;5087599;28;20051;-82
2023/12/12 06:31:31;;;;;;;14.93;10.47;;;;;;;3.03;74.42;100630.66;5079604;28;20043;-82
2023/12/12 06:34:26;;;;;;;16.67;12.35;;;;;;;2.96;73.63;100635.47;5074092;28;20069;-82
2023/12/12 06:37:20;;;;;;;18.37;9.13;;;;;;;2.87;73.72;100631.69;5082496;28;20040;-82
2023/12/12 06:40:16;;;;;;;24.80;11.48;;;;;;;2.88;74.58;100631.44;5080355;28;20700;-83
2023/12/12 06:43:06;;;;;;;;;;;;;;;2.94;75.81;100635.75;5084028;28;20039;-82
2023/12/12 06:45:57;;;;;;;21.73;10.32;;;;;;;2.87;75.95;100629.00;5081419;28;19967;-83
2023/12/12 06:48:49;;;;;;;18.38;12.10;;;;;;;3.03;75.84;100627.97;5080211;28;20048;-83
2023/12/12 06:51:41;;;;;;;22.23;11.85;;;;;;;3.07;73.86;100629.03;5077197;28;20123;-83
2023/12/12 06:54:36;;;;;;;11.07;7.65;;;;;;;3.15;73.71;100641.91;5080824;28;20044;-83
2023/12/12 06:57:30;;;;;;;18.55;11.50;;;;;;;3.09;73.93;100640.31;5083723;28;20055;-84
2023/12/12 07:00:25;;;;;;;18.52;11.85;;;;;;;3.30;73.52;100646.53;5081122;28;20048;-83
2023/12/12 07:03:19;;;;;;;22.13;9.60;;;;;;;3.43;76.29;100643.28;5081110;28;20039;-82
2023/12/12 07:06:14;;;;;;;21.23;12.23;;;;;;;3.27;75.48;100644.34;5081972;28;20047;-83
2023/12/12 07:09:10;;;;;;;18.02;12.45;;;;;;;3.45;73.75;100641.91;5079210;28;20052;-84
2023/12/12 07:12:04;;;;;;;15.63;8.70;;;;;;;3.52;72.42;100638.97;5080911;28;20047;-82
2023/12/12 07:14:58;;;;;;;22.67;13.52;;;;;;;3.59;71.65;100642.19;5078307;28;20043;-82
2023/12/12 07:17:52;;;;;;;15.32;10.95;;;;;;;3.73;72.31;100650.50;5078423;28;20056;-82
2023/12/12 07:20:46;;;;;;;12.40;8.63;;;;;;;3.39;73.22;100653.78;5080459;28;20047;-82
2023/12/12 07:23:38;;;;;;;19.63;12.45;;;;;;;3.35;73.73;100655.34;5079673;28;20039;-83
2023/12/12 07:26:28;;;;;;;18.00;11.23;;;;;;;3.42;73.07;100647.03;5077260;28;20421;-85
2023/12/12 07:29:23;;;;;;;13.65;10.45;;;;;;;3.49;72.05;100661.03;5079174;28;20036;-83
2023/12/12 07:32:17;;;;;;;17.13;9.35;;;;;;;3.50;73.88;100653.78;5077309;28;20040;-83
2023/12/12 07:35:12;;;;;;;12.43;9.23;;;;;;;3.77;72.81;100659.63;5081411;28;20565;-83
2023/12/12 07:38:04;;;;;;;16.05;11.55;;;;;;;4.03;72.27;100653.13;5082128;28;20043;-82
2023/12/12 07:40:58;;;;;;;15.60;10.73;;;;;;;4.11;71.42;100641.81;5083225;28;20040;-83
2023/12/12 07:43:54;;;;;;;15.73;10.65;;;;;;;4.24;70.96;100629.66;5075562;28;20051;-83
2023/12/12 07:46:48;;;;;;;26.55;11.90;;;;;;;4.01;71.25;100619.53;5068798;28;20060;-83
2023/12/12 07:49:40;;;;;;;27.33;9.75;;;;;;;4.08;71.26;100639.66;5074193;28;20047;-82
2023/12/12 07:52:33;;;;;;;30.42;12.77;;;;;;;4.75;77.12;100643.69;5075416;28;20048;-81
2023/12/12 07:55:27;;;;;;;12.97;9.13;;;;;;;4.58;72.82;100637.84;5083521;28;20060;-82
2023/12/12 07:58:19;;;;;;;21.47;11.40;;;;;;;4.43;72.23;100636.03;5074763;28;21315;-81
2023/12/12 08:01:14;;;;;;;21.02;11.65;;;;;;;4.70;73.49;100657.19;5078991;28;20052;-82
2023/12/12 08:04:08;;;;;;;29.38;11.68;;;;;;;5.96;80.47;100679.69;5078817;28;20052;-82
2023/12/12 08:07:01;;;;;;;25.05;9.55;;;;;;;9.41;69.14;100670.03;5081071;28;20043;-82
2023/12/12 08:09:55;;;;;;;27.30;12.20;;;;;;;9.14;61.96;100659.31;5078726;28;20075;-82
2023/12/12 08:12:47;;;;;;;19.20;11.70;;;;;;;7.93;61.80;100668.00;5082739;28;20040;-83
2023/12/12 08:15:36;;;;;;;37.33;14.75;;;;;;;10.37;65.31;100672.97;5083914;28;20044;-83
2023/12/12 08:18:28;;;;;;;22.80;13.10;;;;;;;9.56;60.72;100663.44;5088060;28;20040;-82
2023/12/12 08:21:17;;;;;;;25.02;11.60;;;;;;;8.48;61.50;100666.94;5084628;28;20059;-84
2023/12/12 08:24:09;;;;;;;37.15;14.68;;;;;;;8.03;64.20;100673.22;5080831;28;20052;-80
2023/12/12 08:27:03;;;;;;;27.90;14.65;;;;;;;7.83;64.60;100647.31;5078848;28;20508;-83
2023/12/12 08:29:55;;;;;;;26.23;13.30;;;;;;;7.50;63.99;100651.97;5078548;28;20051;-82
2023/12/12 08:32:45;;;;;;;26.30;13.80;;;;;;;7.41;65.70;100642.94;5078761;28;20040;-82
2023/12/12 08:35:37;;;;;;;19.60;11.77;;;;;;;6.87;65.07;100641.59;5080027;28;20059;-79
2023/12/12 08:38:32;;;;;;;15.85;8.80;;;;;;;6.49;67.25;100631.84;5077538;28;20040;-79
2023/12/12 08:41:27;;;;;;;13.30;8.60;;;;;;;6.32;68.30;100635.03;5080819;28;20055;-79
2023/12/12 08:44:19;;;;;;;34.38;10.00;;;;;;;6.26;68.93;100627.25;5076358;28;20523;-79
2023/12/12 08:47:11;;;;;;;27.88;13.48;;;;;;;6.22;69.57;100631.63;5076123;28;20043;-80
2023/12/12 08:50:04;;;;;;;18.52;12.57;;;;;;;6.05;70.83;100631.28;5079643;28;20406;-80
2023/12/12 08:52:59;;;;;;;26.03;11.00;;;;;;;6.04;71.97;100621.59;5077434;28;20504;-79
2023/12/12 08:55:51;;;;;;;31.47;15.97;;;;;;;6.15;72.72;100620.38;5072296;28;20044;-80
2023/12/12 08:58:45;;;;;;;46.65;19.75;;;;;;;6.32;73.48;100631.50;5077380;28;20353;-80
2023/12/12 09:01:40;;;;;;;17.60;12.32;;;;;;;6.67;73.20;100641.06;5073577;28;20405;-80
2023/12/12 09:04:34;;;;;;;37.88;18.52;;;;;;;8.30;69.95;100642.69;5075811;28;20047;-80
2023/12/12 09:07:24;;;;;;;19.50;13.35;;;;;;;7.57;67.72;100665.09;5076183;28;20047;-81
2023/12/12 09:10:19;;;;;;;22.33;13.45;;;;;;;7.07;69.49;100645.06;5079161;28;20040;-80
2023/12/12 09:13:13;;;;;;;19.87;9.80;;;;;;;6.78;71.48;100648.75;5076769;28;20525;-80
2023/12/12 09:16:05;;;;;;;14.27;9.17;;;;;;;6.61;73.01;100636.81;5072767;28;20048;-80
2023/12/12 09:19:00;;;;;;;20.90;12.98;;;;;;;6.54;74.18;100642.59;5079036;28;20274;-80
2023/12/12 09:21:56;;;;;;;31.30;13.30;;;;;;;6.53;74.80;100642.88;5076179;28;20045;-80
2023/12/12 09:24:51;;;;;;;13.10;8.67;;;;;;;6.47;74.21;100647.53;5068447;28;20627;-80
2023/12/12 09:27:45;;;;;;;21.73;12.32;;;;;;;6.54;74.55;100642.59;5075116;28;20036;-81
2023/12/12 09:30:37;;;;;;;22.23;11.90;;;;;;;6.62;74.18;100650.03;5078851;28;20035;-80
2023/12/12 09:33:29;;;;;;;19.15;11.68;;;;;;;6.70;74.74;100649.41;5079987;28;20059;-82
2023/12/12 09:36:21;;;;;;;24.95;14.38;;;;;;;6.75;75.05;100667.44;5074370;28;20043;-81
2023/12/12 09:39:11;;;;;;;25.85;12.48;;;;;;;7.54;71.79;100666.50;5073184;28;20417;-81
2023/12/12 09:42:09;;;;;;;14.85;8.88;;;;;;;7.20;74.87;100661.38;5074041;28;20040;-81
2023/12/12 09:45:03;;;;;;;18.73;11.65;;;;;;;7.17;75.47;100666.56;5073537;28;20537;-81
2023/12/12 09:47:59;;;;;;;18.65;9.38;;;;;;;7.27;75.22;100656.38;5085257;28;20047;-81
2023/12/12 09:50:54;;;;;;;23.23;10.90;;;;;;;7.39;75.62;100645.13;5083357;28;20047;-81
2023/12/12 09:53:49;;;;;;;12.48;6.72;;;;;;;7.97;72.27;100645.47;5074362;28;20297;-80
2023/12/12 09:56:41;;;;;;;;;;;;;;;7.73;73.02;100637.50;5083731;28;20520;-81
2023/12/12 09:59:36;;;;;;;19.27;8.52;;;;;;;7.60;74.88;100654.50;5081020;28;19912;-81
2023/12/12 10:02:33;;;;;;;22.33;8.90;;;;;;;7.65;76.11;100662.53;5084840;28;20059;-81
2023/12/12 10:05:25;;;;;;;17.33;9.30;;;;;;;7.67;76.82;100670.34;5082392;28;20043;-81
2023/12/12 10:08:17;;;;;;;24.83;10.55;;;;;;;7.66;78.12;100671.47;5080950;28;20244;-81
2023/12/12 10:11:13;;;;;;;28.33;13.07;;;;;;;7.79;79.12;100657.16;5080474;28;20040;-81
2023/12/12 10:14:07;;;;;;;32.45;16.90;;;;;;;7.79;80.94;100631.97;5080997;28;20047;-81
2023/12/12 10:17:04;;;;;;;34.05;17.23;;;;;;;7.85;80.26;100619.97;5079768;28;20048;-81
2023/12/12 10:20:07;;;;;;;30.85;15.23;;;;;;;7.82;79.69;100602.44;5082800;28;20043;-81
2023/12/12 10:23:00;;;;;;;31.65;16.92;;;;;;;7.78;79.64;100611.44;5080332;28;20048;-81
2023/12/12 10:25:58;;;;;;;33.08;17.10;;;;;;;7.87;78.65;100617.78;5084027;28;20063;-81
2023/12/12 10:28:47;;;;;;;30.80;16.42;;;;;;;7.67;79.08;100616.22;5079031;28;20047;-81
2023/12/12 10:31:41;;;;;;;28.33;15.98;;;;;;;7.66;79.72;100610.03;5082384;28;20055;-81
2023/12/12 10:34:35;;;;;;;29.35;17.13;;;;;;;7.66;80.95;100609.22;5082762;28;20044;-81
2023/12/12 10:37:30;;;;;;;24.17;10.83;;;;;;;7.72;79.96;100599.88;5080499;28;20059;-81
2023/12/12 10:40:23;;;;;;;21.20;14.52;;;;;;;7.83;80.35;100590.47;5083085;28;20055;-80
2023/12/12 10:43:20;;;;;;;33.25;17.15;;;;;;;8.46;78.92;100590.59;5075452;28;20394;-82
2023/12/12 10:46:15;;;;;;;28.35;13.75;;;;;;;8.36;77.35;100590.00;5076542;28;20052;-81
2023/12/12 10:49:13;;;;;;;17.92;10.30;;;;;;;8.48;77.89;100587.59;5080102;28;20055;-80
2023/12/12 10:52:08;;;;;;;23.90;13.40;;;;;;;8.74;77.86;100607.59;5065027;28;20047;-81
2023/12/12 10:55:04;;;;;;;14.77;9.93;;;;;;;8.90;77.91;100605.31;5086755;28;20421;-83
2023/12/12 10:57:59;;;;;;;16.38;10.00;;;;;;;8.98;76.96;100596.47;5082187;28;20043;-81
2023/12/12 11:00:52;;;;;;;18.23;10.23;;;;;;;9.11;76.54;100584.75;5082161;28;20055;-82
2023/12/12 11:03:44;;;;;;;19.52;12.45;;;;;;;9.32;75.75;100594.00;5079597;28;20039;-81
2023/12/12 11:06:39;;;;;;;20.50;11.77;;;;;;;9.51;74.80;100603.84;5080158;28;20037;-81
2023/12/12 11:09:33;;;;;;;21.52;11.90;;;;;;;9.66;73.82;100604.25;5081294;28;20036;-81
2023/12/12 11:12:29;;;;;;;25.67;10.45;;;;;;;9.72;70.93;100588.63;5087060;28;20048;-81
2023/12/12 11:15:26;;;;;;;21.48;11.68;;;;;;;9.91;69.52;100569.38;5084854;28;20405;-81
2023/12/12 11:18:20;;;;;;;20.67;9.60;;;;;;;10.07;66.52;100567.84;5081609;28;20063;-81
2023/12/12 11:21:48;;;;;;;19.33;9.93;;;;;;;10.24;66.07;100566.00;5081742;28;20039;-81
2023/12/12 11:24:59;;;;;;;22.00;10.38;;;;;;;10.50;64.37;100557.09;5075566;28;20040;-81
2023/12/12 11:27:53;;;;;;;15.30;8.70;;;;;;;10.65;61.62;100545.75;5078619;28;20036;-80
2023/12/12 11:30:45;;;;;;;14.90;8.57;;;;;;;10.69;60.78;100544.00;5082308;28;20115;-80
2023/12/12 11:33:57;;;;;;;11.73;7.95;;;;;;;10.87;58.61;100559.16;5072526;28;20036;-80
2023/12/12 11:37:01;;;;;;;16.90;9.63;;;;;;;11.17;60.17;100551.16;5076904;28;20052;-80
2023/12/12 11:40:00;;;;;;;12.83;8.90;;;;;;;11.20;59.02;100534.97;5077192;28;20039;-80
2023/12/12 11:42:54;;;;;;;17.33;9.02;;;;;;;11.25;57.66;100526.63;5083164;28;20040;-80
2023/12/12 11:45:46;;;;;;;18.50;9.23;;;;;;;11.50;58.79;100520.31;5080926;28;20047;-80
2023/12/12 11:48:38;;;;;;;17.17;8.68;;;;;;;11.54;57.48;100521.25;5074954;28;20044;-80
2023/12/12 11:51:50;;;;;;;18.53;11.33;;;;;;;11.80;58.37;100523.91;5077035;28;20413;-80
2023/12/12 11:54:42;;;;;;;15.55;10.43;;;;;;;11.79;58.26;100507.88;5075363;28;20275;-80
2023/12/12 11:57:42;;;;;;;14.25;9.73;;;;;;;11.87;57.94;100510.56;5075425;28;20421;-80
2023/12/12 12:00:43;;;;;;;14.88;9.30;;;;;;;12.05;57.52;100494.09;5079476;28;20056;-82
2023/12/12 12:03:30;;;;;;;19.65;11.05;;;;;;;12.06;58.18;100495.72;5075922;28;20040;-83
2023/12/12 12:06:21;;;;;;;13.02;7.63;;;;;;;12.06;57.60;100495.72;5083012;28;20052;-82
2023/12/12 12:09:15;;;;;;;19.00;10.50;;;;;;;12.08;57.10;100471.66;5079975;28;20059;-82
2023/12/12 12:12:13;;;;;;;18.23;10.85;;;;;;;12.16;57.99;100479.78;5085049;28;20037;-82
2023/12/12 12:15:11;;;;;;;17.67;10.80;;;;;;;12.18;57.52;100479.44;5079973;28;20032;-82
2023/12/12 12:18:06;;;;;;;20.67;10.88;;;;;;;12.33;57.98;100473.41;5081090;28;20037;-82
2023/12/12 12:20:58;;;;;;;20.02;10.23;;;;;;;12.29;57.33;100483.38;5080571;28;20028;-82
2023/12/12 12:23:50;;;;;;;19.13;11.05;;;;;;;12.43;57.87;100478.47;5080559;28;20036;-82
2023/12/12 12:26:42;;;;;;;19.70;12.43;;;;;;;12.54;58.34;100473.41;5083825;28;20036;-82
2023/12/12 12:29:34;;;;;;;22.80;11.98;;;;;;;12.55;57.33;100466.78;5081367;28;20092;-82
2023/12/12 12:32:29;;;;;;;28.23;12.00;;;;;;;12.59;56.50;100460.34;5085485;28;20036;-82
2023/12/12 12:35:21;;;;;;;17.80;10.23;;;;;;;12.60;56.52;100467.38;5083511;28;20049;-83
2023/12/12 12:38:32;;;;;;;19.25;11.85;;;;;;;12.76;56.24;100457.44;5080807;28;20037;-83
2023/12/12 12:41:27;;;;;;;18.55;10.40;;;;;;;12.74;54.81;100442.56;5067497;28;20040;-80
2023/12/12 12:44:20;;;;;;;19.95;11.00;;;;;;;12.92;56.16;100426.78;5075198;28;20037;-82
2023/12/12 12:47:14;;;;;;;17.60;10.20;;;;;;;12.93;55.70;100418.28;5080610;28;20040;-82
2023/12/12 12:50:08;;;;;;;22.13;10.90;;;;;;;13.06;56.13;100413.63;5081178;28;20440;-83
2023/12/12 12:53:04;;;;;;;24.17;14.90;;;;;;;13.18;56.18;100421.88;5080836;28;20036;-83
2023/12/12 12:55:59;;;;;;;22.98;12.57;;;;;;;13.28;55.64;100426.88;5083973;28;20029;-82
2023/12/12 12:58:53;;;;;;;17.52;8.30;;;;;;;13.39;54.62;100421.78;5082115;28;20044;-83
2023/12/12 13:01:48;;;;;;;23.73;12.90;;;;;;;13.45;55.15;100425.88;5086269;28;20054;-83
2023/12/12 13:04:43;;;;;;;13.37;8.27;;;;;;;13.40;54.77;100412.44;5083407;28;20279;-83
2023/12/12 13:07:31;;;;;;;21.20;12.73;;;;;;;13.22;55.25;100417.31;5080045;28;20775;-82
2023/12/12 13:10:26;;;;;;;20.92;11.32;;;;;;;13.20;55.27;100414.16;5069622;28;20044;-83
2023/12/12 13:13:20;;;;;;;17.23;10.30;;;;;;;13.15;55.19;100409.72;5073107;28;20036;-83
2023/12/12 13:16:15;;;;;;;20.55;12.10;;;;;;;13.05;56.17;100409.31;5078745;28;20040;-82
2023/12/12 13:19:10;;;;;;;20.52;9.88;;;;;;;13.01;55.24;100408.38;5077746;28;20490;-84
2023/12/12 13:22:02;;;;;;;16.48;9.45;;;;;;;12.84;56.10;100412.13;5080045;28;20048;-83
2023/12/12 13:24:57;;;;;;;14.90;9.68;;;;;;;12.76;55.67;100400.16;5077064;28;20028;-84